sensor_id;sensor_type;location;lat;lon;timestamp;temperature;humidity
24158;DHT22;12316;50.904;4.200;2023-11-19T00:00:10;14.60;99.90
24158;DHT22;12316;50.904;4.200;2023-11-19T00:02:40;14.60;99.90
24158;DHT22;12316;50.904;4.200;2023-11-19T00:05:06;14.60;99.90
24158;DHT22;12316;50.904;4.200;2023-11-19T00:07:37;14.70;99.90
24158;DHT22;12316;50.904;4.200;2023-11-19T00:10:11;14.70;99.90
24158;DHT22;12316;50.904;4.200;2023-11-19T00:12:41;14.60;99.90
24158;DHT22;12316;50.904;4.200;2023-11-19T00:15:07;14.60;99.90
24158;DHT22;12316;50.904;4.200;2023-11-19T00:17:44;14.60;99.90
24158;DHT22;12316;50.904;4.200;2023-11-19T00:20:19;14.70;99.90
24158;DHT22;12316;50.904;4.200;2023-11-19T00:22:47;14.70;99.90
24158;DHT22;12316;50.904;4.200;2023-11-19T00:25:17;14.60;99.90
24158;DHT22;12316;50.904;4.200;2023-11-19T00:27:42;14.60;99.90
24158;DHT22;12316;50.904;4.200;2023-11-19T00:30:11;14.50;99.90
24158;DHT22;12316;50.904;4.200;2023-11-19T00:32:37;14.50;99.90
24158;DHT22;12316;50.904;4.200;2023-11-19T00:35:05;14.40;99.90
24158;DHT22;12316;50.904;4.200;2023-11-19T00:37:31;14.30;99.90
24158;DHT22;12316;50.904;4.200;2023-11-19T00:39:56;14.30;99.90
24158;DHT22;12316;50.904;4.200;2023-11-19T00:42:23;14.30;99.90
24158;DHT22;12316;50.904;4.200;2023-11-19T00:44:52;14.40;99.90
24158;DHT22;12316;50.904;4.200;2023-11-19T00:47:18;14.40;99.90
24158;DHT22;12316;50.904;4.200;2023-11-19T00:49:49;14.50;99.90
24158;DHT22;12316;50.904;4.200;2023-11-19T00:52:16;14.50;99.90
24158;DHT22;12316;50.904;4.200;2023-11-19T00:54:41;14.50;99.90
24158;DHT22;12316;50.904;4.200;2023-11-19T00:57:07;14.60;99.90
24158;DHT22;12316;50.904;4.200;2023-11-19T00:59:33;14.60;99.90
24158;DHT22;12316;50.904;4.200;2023-11-19T01:01:58;14.40;99.90
24158;DHT22;12316;50.904;4.200;2023-11-19T01:04:29;14.40;99.90
24158;DHT22;12316;50.904;4.200;2023-11-19T01:06:55;14.40;99.90
24158;DHT22;12316;50.904;4.200;2023-11-19T01:09:20;14.50;99.90
24158;DHT22;12316;50.904;4.200;2023-11-19T01:11:46;14.50;99.90
24158;DHT22;12316;50.904;4.200;2023-11-19T01:14:11;14.40;99.90
24158;DHT22;12316;50.904;4.200;2023-11-19T01:16:37;14.30;99.90
24158;DHT22;12316;50.904;4.200;2023-11-19T01:19:03;14.40;99.90
24158;DHT22;12316;50.904;4.200;2023-11-19T01:21:30;14.40;99.90
24158;DHT22;12316;50.904;4.200;2023-11-19T01:23:57;14.20;99.90
24158;DHT22;12316;50.904;4.200;2023-11-19T01:26:24;14.20;99.90
24158;DHT22;12316;50.904;4.200;2023-11-19T01:28:49;14.10;99.90
24158;DHT22;12316;50.904;4.200;2023-11-19T01:31:17;14.00;99.90
24158;DHT22;12316;50.904;4.200;2023-11-19T01:33:44;13.90;99.90
24158;DHT22;12316;50.904;4.200;2023-11-19T01:36:13;13.80;99.90
24158;DHT22;12316;50.904;4.200;2023-11-19T01:38:39;13.80;99.90
24158;DHT22;12316;50.904;4.200;2023-11-19T01:41:04;13.80;99.90
24158;DHT22;12316;50.904;4.200;2023-11-19T01:43:37;13.80;99.90
24158;DHT22;12316;50.904;4.200;2023-11-19T01:46:05;13.90;99.90
24158;DHT22;12316;50.904;4.200;2023-11-19T01:48:33;13.90;99.90
24158;DHT22;12316;50.904;4.200;2023-11-19T01:51:00;13.90;99.90
24158;DHT22;12316;50.904;4.200;2023-11-19T01:53:27;14.00;99.90
24158;DHT22;12316;50.904;4.200;2023-11-19T01:55:54;14.10;99.90
24158;DHT22;12316;50.904;4.200;2023-11-19T01:58:20;14.00;99.90
24158;DHT22;12316;50.904;4.200;2023-11-19T02:00:46;14.00;99.90
24158;DHT22;12316;50.904;4.200;2023-11-19T02:03:12;13.90;99.90
24158;DHT22;12316;50.904;4.200;2023-11-19T02:05:39;13.80;99.90
24158;DHT22;12316;50.904;4.200;2023-11-19T02:08:05;13.90;99.90
24158;DHT22;12316;50.904;4.200;2023-11-19T02:10:31;13.90;99.90
24158;DHT22;12316;50.904;4.200;2023-11-19T02:12:58;13.90;99.90
24158;DHT22;12316;50.904;4.200;2023-11-19T02:15:24;13.90;99.90
24158;DHT22;12316;50.904;4.200;2023-11-19T02:17:51;13.90;99.90
24158;DHT22;12316;50.904;4.200;2023-11-19T02:20:17;13.90;99.90
24158;DHT22;12316;50.904;4.200;2023-11-19T02:22:46;13.80;99.90
24158;DHT22;12316;50.904;4.200;2023-11-19T02:25:21;13.90;99.90
24158;DHT22;12316;50.904;4.200;2023-11-19T02:28:06;13.80;99.90
24158;DHT22;12316;50.904;4.200;2023-11-19T02:30:32;13.90;99.90
24158;DHT22;12316;50.904;4.200;2023-11-19T02:32:59;13.90;99.90
24158;DHT22;12316;50.904;4.200;2023-11-19T02:35:27;13.90;99.90
24158;DHT22;12316;50.904;4.200;2023-11-19T02:37:56;13.80;99.90
24158;DHT22;12316;50.904;4.200;2023-11-19T02:40:21;13.60;99.90
24158;DHT22;12316;50.904;4.200;2023-11-19T02:42:49;13.60;99.90
24158;DHT22;12316;50.904;4.200;2023-11-19T02:45:15;13.60;99.90
24158;DHT22;12316;50.904;4.200;2023-11-19T02:47:41;13.70;99.90
24158;DHT22;12316;50.904;4.200;2023-11-19T02:50:10;13.70;99.90
24158;DHT22;12316;50.904;4.200;2023-11-19T02:52:40;13.60;99.90
24158;DHT22;12316;50.904;4.200;2023-11-19T02:55:06;13.50;99.90
24158;DHT22;12316;50.904;4.200;2023-11-19T02:57:35;13.50;99.90
24158;DHT22;12316;50.904;4.200;2023-11-19T03:00:02;13.50;99.90
24158;DHT22;12316;50.904;4.200;2023-11-19T03:02:40;13.50;99.90
24158;DHT22;12316;50.904;4.200;2023-11-19T03:05:12;13.40;99.90
24158;DHT22;12316;50.904;4.200;2023-11-19T03:07:43;13.40;99.90
24158;DHT22;12316;50.904;4.200;2023-11-19T03:10:10;13.40;99.90
24158;DHT22;12316;50.904;4.200;2023-11-19T03:12:39;13.30;99.90
24158;DHT22;12316;50.904;4.200;2023-11-19T03:15:05;13.30;99.90
24158;DHT22;12316;50.904;4.200;2023-11-19T03:17:31;13.30;99.90
24158;DHT22;12316;50.904;4.200;2023-11-19T03:19:56;13.20;99.90
24158;DHT22;12316;50.904;4.200;2023-11-19T03:22:22;13.30;99.90
24158;DHT22;12316;50.904;4.200;2023-11-19T03:24:51;13.20;99.90
24158;DHT22;12316;50.904;4.200;2023-11-19T03:27:16;13.20;99.90
24158;DHT22;12316;50.904;4.200;2023-11-19T03:29:43;13.20;99.90
24158;DHT22;12316;50.904;4.200;2023-11-19T03:32:08;13.10;99.90
24158;DHT22;12316;50.904;4.200;2023-11-19T03:34:34;13.10;99.90
24158;DHT22;12316;50.904;4.200;2023-11-19T03:37:00;13.20;99.90
24158;DHT22;12316;50.904;4.200;2023-11-19T03:39:25;13.10;99.90
24158;DHT22;12316;50.904;4.200;2023-11-19T03:41:52;13.00;99.90
24158;DHT22;12316;50.904;4.200;2023-11-19T03:44:18;13.00;99.90
24158;DHT22;12316;50.904;4.200;2023-11-19T03:46:44;13.10;99.90
24158;DHT22;12316;50.904;4.200;2023-11-19T03:49:10;13.10;99.90
24158;DHT22;12316;50.904;4.200;2023-11-19T03:51:35;13.00;99.90
24158;DHT22;12316;50.904;4.200;2023-11-19T03:54:01;12.90;99.90
24158;DHT22;12316;50.904;4.200;2023-11-19T03:56:26;12.80;99.90
24158;DHT22;12316;50.904;4.200;2023-11-19T03:58:52;12.90;99.90
24158;DHT22;12316;50.904;4.200;2023-11-19T04:01:18;12.90;99.90
24158;DHT22;12316;50.904;4.200;2023-11-19T04:03:44;12.90;99.90
24158;DHT22;12316;50.904;4.200;2023-11-19T04:06:09;13.00;99.90
24158;DHT22;12316;50.904;4.200;2023-11-19T04:08:35;13.10;99.90
24158;DHT22;12316;50.904;4.200;2023-11-19T04:11:04;13.20;99.90
24158;DHT22;12316;50.904;4.200;2023-11-19T04:13:30;13.20;99.90
24158;DHT22;12316;50.904;4.200;2023-11-19T04:15:55;13.30;99.90
24158;DHT22;12316;50.904;4.200;2023-11-19T04:18:21;13.40;99.90
24158;DHT22;12316;50.904;4.200;2023-11-19T04:20:46;13.40;99.90
24158;DHT22;12316;50.904;4.200;2023-11-19T04:23:12;13.40;99.90
24158;DHT22;12316;50.904;4.200;2023-11-19T04:25:37;13.40;99.90
24158;DHT22;12316;50.904;4.200;2023-11-19T04:28:03;13.30;99.90
24158;DHT22;12316;50.904;4.200;2023-11-19T04:30:29;13.40;99.90
24158;DHT22;12316;50.904;4.200;2023-11-19T04:32:57;13.30;99.90
24158;DHT22;12316;50.904;4.200;2023-11-19T04:35:23;13.20;99.90
24158;DHT22;12316;50.904;4.200;2023-11-19T04:37:49;13.20;99.90
24158;DHT22;12316;50.904;4.200;2023-11-19T04:40:14;13.20;99.90
24158;DHT22;12316;50.904;4.200;2023-11-19T04:42:41;13.10;99.90
24158;DHT22;12316;50.904;4.200;2023-11-19T04:45:07;13.20;99.90
24158;DHT22;12316;50.904;4.200;2023-11-19T04:47:38;13.10;99.90
24158;DHT22;12316;50.904;4.200;2023-11-19T04:50:04;13.10;99.90
24158;DHT22;12316;50.904;4.200;2023-11-19T04:52:30;13.10;99.90
24158;DHT22;12316;50.904;4.200;2023-11-19T04:54:56;13.00;99.90
24158;DHT22;12316;50.904;4.200;2023-11-19T04:57:21;12.90;99.90
24158;DHT22;12316;50.904;4.200;2023-11-19T04:59:48;12.90;99.90
24158;DHT22;12316;50.904;4.200;2023-11-19T05:02:13;12.80;99.90
24158;DHT22;12316;50.904;4.200;2023-11-19T05:04:43;12.80;99.90
24158;DHT22;12316;50.904;4.200;2023-11-19T05:07:09;12.60;99.90
24158;DHT22;12316;50.904;4.200;2023-11-19T05:09:35;12.60;99.90
24158;DHT22;12316;50.904;4.200;2023-11-19T05:12:01;12.60;99.90
24158;DHT22;12316;50.904;4.200;2023-11-19T05:14:27;12.50;99.90
24158;DHT22;12316;50.904;4.200;2023-11-19T05:16:53;12.50;99.90
24158;DHT22;12316;50.904;4.200;2023-11-19T05:19:18;12.40;99.90
24158;DHT22;12316;50.904;4.200;2023-11-19T05:21:45;12.40;99.90
24158;DHT22;12316;50.904;4.200;2023-11-19T05:24:11;12.60;99.90
24158;DHT22;12316;50.904;4.200;2023-11-19T05:26:39;12.50;99.90
24158;DHT22;12316;50.904;4.200;2023-11-19T05:29:06;12.60;99.90
24158;DHT22;12316;50.904;4.200;2023-11-19T05:31:31;12.60;99.90
24158;DHT22;12316;50.904;4.200;2023-11-19T05:33:57;12.60;99.90
24158;DHT22;12316;50.904;4.200;2023-11-19T05:36:22;12.70;99.90
24158;DHT22;12316;50.904;4.200;2023-11-19T05:38:48;12.60;99.90
24158;DHT22;12316;50.904;4.200;2023-11-19T05:41:13;12.50;99.90
24158;DHT22;12316;50.904;4.200;2023-11-19T05:43:39;12.50;99.90
24158;DHT22;12316;50.904;4.200;2023-11-19T05:46:07;12.40;99.90
24158;DHT22;12316;50.904;4.200;2023-11-19T05:48:33;12.40;99.90
24158;DHT22;12316;50.904;4.200;2023-11-19T05:50:58;12.30;99.90
24158;DHT22;12316;50.904;4.200;2023-11-19T05:53:25;12.40;99.90
24158;DHT22;12316;50.904;4.200;2023-11-19T05:55:51;12.40;99.90
24158;DHT22;12316;50.904;4.200;2023-11-19T05:58:26;12.40;99.90
24158;DHT22;12316;50.904;4.200;2023-11-19T06:00:54;12.50;99.90
24158;DHT22;12316;50.904;4.200;2023-11-19T06:03:19;12.50;99.90
24158;DHT22;12316;50.904;4.200;2023-11-19T06:05:47;12.50;99.90
24158;DHT22;12316;50.904;4.200;2023-11-19T06:08:13;12.40;99.90
24158;DHT22;12316;50.904;4.200;2023-11-19T06:10:42;12.30;99.90
24158;DHT22;12316;50.904;4.200;2023-11-19T06:13:09;12.30;99.90
24158;DHT22;12316;50.904;4.200;2023-11-19T06:15:36;12.30;99.90
24158;DHT22;12316;50.904;4.200;2023-11-19T06:18:03;12.30;99.90
24158;DHT22;12316;50.904;4.200;2023-11-19T06:20:32;12.20;99.90
24158;DHT22;12316;50.904;4.200;2023-11-19T06:22:58;12.20;99.90
24158;DHT22;12316;50.904;4.200;2023-11-19T06:25:24;12.20;99.90
24158;DHT22;12316;50.904;4.200;2023-11-19T06:27:53;12.20;99.90
24158;DHT22;12316;50.904;4.200;2023-11-19T06:30:19;12.20;99.90
24158;DHT22;12316;50.904;4.200;2023-11-19T06:32:45;12.20;99.90
24158;DHT22;12316;50.904;4.200;2023-11-19T06:35:11;12.20;99.90
24158;DHT22;12316;50.904;4.200;2023-11-19T06:37:38;12.20;99.90
24158;DHT22;12316;50.904;4.200;2023-11-19T06:40:05;12.20;99.90
24158;DHT22;12316;50.904;4.200;2023-11-19T06:42:31;12.20;99.90
24158;DHT22;12316;50.904;4.200;2023-11-19T06:44:57;12.10;99.90
24158;DHT22;12316;50.904;4.200;2023-11-19T06:47:26;12.10;99.90
24158;DHT22;12316;50.904;4.200;2023-11-19T06:49:52;12.00;99.90
24158;DHT22;12316;50.904;4.200;2023-11-19T06:52:18;12.10;99.90
24158;DHT22;12316;50.904;4.200;2023-11-19T06:54:44;12.10;99.90
24158;DHT22;12316;50.904;4.200;2023-11-19T06:57:11;12.00;99.90
24158;DHT22;12316;50.904;4.200;2023-11-19T06:59:37;12.00;99.90
24158;DHT22;12316;50.904;4.200;2023-11-19T07:02:03;12.00;99.90
24158;DHT22;12316;50.904;4.200;2023-11-19T07:04:30;12.00;99.90
24158;DHT22;12316;50.904;4.200;2023-11-19T07:06:57;12.00;99.90
24158;DHT22;12316;50.904;4.200;2023-11-19T07:09:22;12.00;99.90
24158;DHT22;12316;50.904;4.200;2023-11-19T07:11:49;12.00;99.90
24158;DHT22;12316;50.904;4.200;2023-11-19T07:14:17;12.00;99.90
24158;DHT22;12316;50.904;4.200;2023-11-19T07:16:43;12.00;99.90
24158;DHT22;12316;50.904;4.200;2023-11-19T07:19:09;11.90;99.90
24158;DHT22;12316;50.904;4.200;2023-11-19T07:21:35;11.90;99.90
24158;DHT22;12316;50.904;4.200;2023-11-19T07:24:05;11.90;99.90
24158;DHT22;12316;50.904;4.200;2023-11-19T07:26:30;12.00;99.90
24158;DHT22;12316;50.904;4.200;2023-11-19T07:28:56;12.10;99.90
24158;DHT22;12316;50.904;4.200;2023-11-19T07:31:22;12.10;99.90
24158;DHT22;12316;50.904;4.200;2023-11-19T07:33:49;12.10;99.90
24158;DHT22;12316;50.904;4.200;2023-11-19T07:36:15;12.10;99.90
24158;DHT22;12316;50.904;4.200;2023-11-19T07:38:40;12.20;99.90
24158;DHT22;12316;50.904;4.200;2023-11-19T07:41:06;12.20;99.90
24158;DHT22;12316;50.904;4.200;2023-11-19T07:43:32;12.20;99.90
24158;DHT22;12316;50.904;4.200;2023-11-19T07:45:58;12.20;99.90
24158;DHT22;12316;50.904;4.200;2023-11-19T07:48:25;12.20;99.90
24158;DHT22;12316;50.904;4.200;2023-11-19T07:50:52;12.20;99.90
24158;DHT22;12316;50.904;4.200;2023-11-19T07:53:18;12.20;99.90
24158;DHT22;12316;50.904;4.200;2023-11-19T07:55:43;12.40;99.90
24158;DHT22;12316;50.904;4.200;2023-11-19T07:58:12;12.50;99.90
24158;DHT22;12316;50.904;4.200;2023-11-19T08:00:38;12.50;99.90
24158;DHT22;12316;50.904;4.200;2023-11-19T08:03:04;12.60;99.90
24158;DHT22;12316;50.904;4.200;2023-11-19T08:05:31;12.60;99.90
24158;DHT22;12316;50.904;4.200;2023-11-19T08:07:56;12.60;99.90
24158;DHT22;12316;50.904;4.200;2023-11-19T08:10:22;12.80;99.90
24158;DHT22;12316;50.904;4.200;2023-11-19T08:12:48;12.80;99.90
24158;DHT22;12316;50.904;4.200;2023-11-19T08:15:14;12.90;99.90
24158;DHT22;12316;50.904;4.200;2023-11-19T08:17:41;13.00;99.90
24158;DHT22;12316;50.904;4.200;2023-11-19T08:20:07;13.10;99.90
24158;DHT22;12316;50.904;4.200;2023-11-19T08:22:36;13.10;99.90
24158;DHT22;12316;50.904;4.200;2023-11-19T08:25:04;13.20;99.90
24158;DHT22;12316;50.904;4.200;2023-11-19T08:27:30;13.10;99.90
24158;DHT22;12316;50.904;4.200;2023-11-19T08:29:55;13.00;99.90
24158;DHT22;12316;50.904;4.200;2023-11-19T08:32:27;13.00;99.90
24158;DHT22;12316;50.904;4.200;2023-11-19T08:34:53;13.00;99.90
24158;DHT22;12316;50.904;4.200;2023-11-19T08:37:19;12.90;99.90
24158;DHT22;12316;50.904;4.200;2023-11-19T08:39:55;12.90;99.90
24158;DHT22;12316;50.904;4.200;2023-11-19T08:42:21;12.80;99.90
24158;DHT22;12316;50.904;4.200;2023-11-19T08:44:50;12.80;99.90
24158;DHT22;12316;50.904;4.200;2023-11-19T08:47:19;12.70;99.90
24158;DHT22;12316;50.904;4.200;2023-11-19T08:49:45;12.70;99.90
24158;DHT22;12316;50.904;4.200;2023-11-19T08:52:11;12.80;99.90
24158;DHT22;12316;50.904;4.200;2023-11-19T08:54:37;12.80;99.90
24158;DHT22;12316;50.904;4.200;2023-11-19T08:57:03;12.60;99.90
24158;DHT22;12316;50.904;4.200;2023-11-19T08:59:30;12.60;99.90
24158;DHT22;12316;50.904;4.200;2023-11-19T09:01:55;12.50;99.90
24158;DHT22;12316;50.904;4.200;2023-11-19T09:04:21;12.40;99.90
24158;DHT22;12316;50.904;4.200;2023-11-19T09:06:49;12.40;99.90
24158;DHT22;12316;50.904;4.200;2023-11-19T09:09:15;12.30;99.90
24158;DHT22;12316;50.904;4.200;2023-11-19T09:11:41;12.40;99.90
24158;DHT22;12316;50.904;4.200;2023-11-19T09:14:06;12.40;99.90
24158;DHT22;12316;50.904;4.200;2023-11-19T09:16:32;12.50;99.90
24158;DHT22;12316;50.904;4.200;2023-11-19T09:18:58;12.60;99.90
24158;DHT22;12316;50.904;4.200;2023-11-19T09:21:28;12.70;99.90
24158;DHT22;12316;50.904;4.200;2023-11-19T09:23:55;12.90;99.90
24158;DHT22;12316;50.904;4.200;2023-11-19T09:26:20;13.00;99.90
24158;DHT22;12316;50.904;4.200;2023-11-19T09:28:46;13.00;99.90
24158;DHT22;12316;50.904;4.200;2023-11-19T09:31:16;12.90;99.90
24158;DHT22;12316;50.904;4.200;2023-11-19T09:33:42;12.90;99.90
24158;DHT22;12316;50.904;4.200;2023-11-19T09:36:08;13.00;99.90
24158;DHT22;12316;50.904;4.200;2023-11-19T09:38:34;13.10;99.90
24158;DHT22;12316;50.904;4.200;2023-11-19T09:41:04;13.20;99.90
24158;DHT22;12316;50.904;4.200;2023-11-19T09:43:33;13.50;99.90
24158;DHT22;12316;50.904;4.200;2023-11-19T09:46:04;13.60;99.90
24158;DHT22;12316;50.904;4.200;2023-11-19T09:48:33;13.50;99.90
24158;DHT22;12316;50.904;4.200;2023-11-19T09:51:01;13.70;99.90
24158;DHT22;12316;50.904;4.200;2023-11-19T09:53:27;13.80;99.90
24158;DHT22;12316;50.904;4.200;2023-11-19T09:55:54;13.70;99.90
24158;DHT22;12316;50.904;4.200;2023-11-19T09:58:20;13.60;99.90
24158;DHT22;12316;50.904;4.200;2023-11-19T10:00:47;13.80;99.90
24158;DHT22;12316;50.904;4.200;2023-11-19T10:03:14;13.80;99.90
24158;DHT22;12316;50.904;4.200;2023-11-19T10:05:39;13.80;99.90
24158;DHT22;12316;50.904;4.200;2023-11-19T10:08:06;13.90;99.90
24158;DHT22;12316;50.904;4.200;2023-11-19T10:10:33;14.00;99.90
24158;DHT22;12316;50.904;4.200;2023-11-19T10:13:00;14.00;99.90
24158;DHT22;12316;50.904;4.200;2023-11-19T10:15:26;14.20;99.90
24158;DHT22;12316;50.904;4.200;2023-11-19T10:17:56;14.10;99.90
24158;DHT22;12316;50.904;4.200;2023-11-19T10:20:23;14.20;99.90
24158;DHT22;12316;50.904;4.200;2023-11-19T10:22:48;14.20;99.90
24158;DHT22;12316;50.904;4.200;2023-11-19T10:25:27;14.20;99.90
24158;DHT22;12316;50.904;4.200;2023-11-19T10:27:53;14.20;99.90
24158;DHT22;12316;50.904;4.200;2023-11-19T10:30:27;14.10;99.90
24158;DHT22;12316;50.904;4.200;2023-11-19T10:33:10;14.00;99.90
24158;DHT22;12316;50.904;4.200;2023-11-19T10:35:58;14.00;99.90
24158;DHT22;12316;50.904;4.200;2023-11-19T10:38:25;13.90;99.90
24158;DHT22;12316;50.904;4.200;2023-11-19T10:40:52;13.90;99.90
24158;DHT22;12316;50.904;4.200;2023-11-19T10:43:21;13.80;99.90
24158;DHT22;12316;50.904;4.200;2023-11-19T10:45:51;13.70;99.90
24158;DHT22;12316;50.904;4.200;2023-11-19T10:48:17;13.70;99.90
24158;DHT22;12316;50.904;4.200;2023-11-19T10:50:44;14.00;99.90
24158;DHT22;12316;50.904;4.200;2023-11-19T10:53:11;14.10;99.90
24158;DHT22;12316;50.904;4.200;2023-11-19T10:55:41;14.10;99.90
24158;DHT22;12316;50.904;4.200;2023-11-19T10:58:10;14.30;99.90
24158;DHT22;12316;50.904;4.200;2023-11-19T11:00:55;14.30;99.90
24158;DHT22;12316;50.904;4.200;2023-11-19T11:03:25;14.50;99.90
24158;DHT22;12316;50.904;4.200;2023-11-19T11:05:52;14.60;99.90
24158;DHT22;12316;50.904;4.200;2023-11-19T11:08:19;14.60;99.90
24158;DHT22;12316;50.904;4.200;2023-11-19T11:11:05;14.50;99.90
24158;DHT22;12316;50.904;4.200;2023-11-19T11:13:32;14.40;99.90
24158;DHT22;12316;50.904;4.200;2023-11-19T11:16:00;14.20;99.90
24158;DHT22;12316;50.904;4.200;2023-11-19T11:18:26;14.10;99.90
24158;DHT22;12316;50.904;4.200;2023-11-19T11:24:01;13.90;99.90
24158;DHT22;12316;50.904;4.200;2023-11-19T11:32:52;13.90;99.90
24158;DHT22;12316;50.904;4.200;2023-11-19T11:38:09;13.90;99.90
24158;DHT22;12316;50.904;4.200;2023-11-19T11:40:35;14.00;99.90
24158;DHT22;12316;50.904;4.200;2023-11-19T11:43:02;14.10;99.90
24158;DHT22;12316;50.904;4.200;2023-11-19T11:45:38;14.20;99.90
24158;DHT22;12316;50.904;4.200;2023-11-19T11:48:09;14.40;99.90
24158;DHT22;12316;50.904;4.200;2023-11-19T11:50:36;14.60;99.90
24158;DHT22;12316;50.904;4.200;2023-11-19T11:53:22;14.80;99.90
24158;DHT22;12316;50.904;4.200;2023-11-19T11:58:25;14.80;99.90
24158;DHT22;12316;50.904;4.200;2023-11-19T12:00:51;14.90;99.90
24158;DHT22;12316;50.904;4.200;2023-11-19T12:03:20;15.20;99.90
24158;DHT22;12316;50.904;4.200;2023-11-19T12:05:49;15.30;99.90
24158;DHT22;12316;50.904;4.200;2023-11-19T12:08:19;15.40;99.90
24158;DHT22;12316;50.904;4.200;2023-11-19T12:10:53;15.20;99.90
24158;DHT22;12316;50.904;4.200;2023-11-19T12:13:21;15.00;99.90
24158;DHT22;12316;50.904;4.200;2023-11-19T12:18:26;14.80;99.90
24158;DHT22;12316;50.904;4.200;2023-11-19T12:20:52;14.70;99.90
24158;DHT22;12316;50.904;4.200;2023-11-19T12:23:17;14.30;99.90
24158;DHT22;12316;50.904;4.200;2023-11-19T12:25:44;14.20;99.90
24158;DHT22;12316;50.904;4.200;2023-11-19T12:28:15;14.30;99.90
24158;DHT22;12316;50.904;4.200;2023-11-19T12:30:44;14.20;99.90
24158;DHT22;12316;50.904;4.200;2023-11-19T12:33:12;14.00;99.90
24158;DHT22;12316;50.904;4.200;2023-11-19T12:35:43;13.90;99.90
24158;DHT22;12316;50.904;4.200;2023-11-19T12:38:20;13.90;99.90
24158;DHT22;12316;50.904;4.200;2023-11-19T12:41:15;13.80;99.90
24158;DHT22;12316;50.904;4.200;2023-11-19T12:43:43;13.90;99.90
24158;DHT22;12316;50.904;4.200;2023-11-19T12:46:19;13.90;99.90
24158;DHT22;12316;50.904;4.200;2023-11-19T12:48:46;13.90;99.90
24158;DHT22;12316;50.904;4.200;2023-11-19T12:51:12;13.90;99.90
24158;DHT22;12316;50.904;4.200;2023-11-19T12:53:53;14.00;99.90
24158;DHT22;12316;50.904;4.200;2023-11-19T12:56:24;14.00;99.90
24158;DHT22;12316;50.904;4.200;2023-11-19T12:58:50;14.00;99.90
24158;DHT22;12316;50.904;4.200;2023-11-19T13:01:19;14.10;99.90
24158;DHT22;12316;50.904;4.200;2023-11-19T13:03:46;14.20;99.90
24158;DHT22;12316;50.904;4.200;2023-11-19T13:06:13;14.20;99.90
24158;DHT22;12316;50.904;4.200;2023-11-19T13:08:50;14.00;99.90
24158;DHT22;12316;50.904;4.200;2023-11-19T13:11:32;14.00;99.90
24158;DHT22;12316;50.904;4.200;2023-11-19T13:14:03;14.10;99.90
24158;DHT22;12316;50.904;4.200;2023-11-19T13:16:36;14.10;99.90
24158;DHT22;12316;50.904;4.200;2023-11-19T13:19:02;14.10;99.90
24158;DHT22;12316;50.904;4.200;2023-11-19T13:21:28;14.00;99.90
24158;DHT22;12316;50.904;4.200;2023-11-19T13:23:55;14.10;99.90
24158;DHT22;12316;50.904;4.200;2023-11-19T13:26:20;14.00;99.90
24158;DHT22;12316;50.904;4.200;2023-11-19T13:28:46;14.00;99.90
24158;DHT22;12316;50.904;4.200;2023-11-19T13:31:12;14.10;99.90
24158;DHT22;12316;50.904;4.200;2023-11-19T13:33:38;14.00;99.90
24158;DHT22;12316;50.904;4.200;2023-11-19T13:36:05;13.90;99.90
24158;DHT22;12316;50.904;4.200;2023-11-19T13:38:35;13.80;99.90
24158;DHT22;12316;50.904;4.200;2023-11-19T13:41:02;13.90;99.90
24158;DHT22;12316;50.904;4.200;2023-11-19T13:43:28;14.00;99.90
24158;DHT22;12316;50.904;4.200;2023-11-19T13:45:54;13.90;99.90
24158;DHT22;12316;50.904;4.200;2023-11-19T13:48:20;13.90;99.90
24158;DHT22;12316;50.904;4.200;2023-11-19T13:50:46;13.90;99.90
24158;DHT22;12316;50.904;4.200;2023-11-19T13:53:11;13.90;99.90
24158;DHT22;12316;50.904;4.200;2023-11-19T13:55:37;13.90;99.90
24158;DHT22;12316;50.904;4.200;2023-11-19T13:58:03;14.00;99.90
24158;DHT22;12316;50.904;4.200;2023-11-19T14:00:28;13.90;99.90
24158;DHT22;12316;50.904;4.200;2023-11-19T14:02:54;13.90;99.90
24158;DHT22;12316;50.904;4.200;2023-11-19T14:05:20;14.00;99.90
24158;DHT22;12316;50.904;4.200;2023-11-19T14:07:46;13.80;99.90
24158;DHT22;12316;50.904;4.200;2023-11-19T14:10:16;13.80;99.90
24158;DHT22;12316;50.904;4.200;2023-11-19T14:12:42;13.80;99.90
24158;DHT22;12316;50.904;4.200;2023-11-19T14:15:10;13.90;99.90
24158;DHT22;12316;50.904;4.200;2023-11-19T14:17:38;13.90;99.90
24158;DHT22;12316;50.904;4.200;2023-11-19T14:20:04;13.70;99.90
24158;DHT22;12316;50.904;4.200;2023-11-19T14:22:45;13.50;99.90
24158;DHT22;12316;50.904;4.200;2023-11-19T14:25:14;13.60;99.90
24158;DHT22;12316;50.904;4.200;2023-11-19T14:27:41;13.70;99.90
24158;DHT22;12316;50.904;4.200;2023-11-19T14:30:09;13.70;99.90
24158;DHT22;12316;50.904;4.200;2023-11-19T14:32:37;13.50;99.90
24158;DHT22;12316;50.904;4.200;2023-11-19T14:35:06;13.40;99.90
24158;DHT22;12316;50.904;4.200;2023-11-19T14:37:32;13.40;99.90
24158;DHT22;12316;50.904;4.200;2023-11-19T14:39:58;13.60;99.90
24158;DHT22;12316;50.904;4.200;2023-11-19T14:42:24;13.50;99.90
24158;DHT22;12316;50.904;4.200;2023-11-19T14:44:51;13.70;99.90
24158;DHT22;12316;50.904;4.200;2023-11-19T14:47:18;13.70;99.90
24158;DHT22;12316;50.904;4.200;2023-11-19T14:49:44;13.60;99.90
24158;DHT22;12316;50.904;4.200;2023-11-19T14:52:10;13.60;99.90
24158;DHT22;12316;50.904;4.200;2023-11-19T14:54:36;13.50;99.90
24158;DHT22;12316;50.904;4.200;2023-11-19T14:57:02;13.60;99.90
24158;DHT22;12316;50.904;4.200;2023-11-19T14:59:28;13.60;99.90
24158;DHT22;12316;50.904;4.200;2023-11-19T15:01:54;13.50;99.90
24158;DHT22;12316;50.904;4.200;2023-11-19T15:04:21;13.40;99.90
24158;DHT22;12316;50.904;4.200;2023-11-19T15:06:46;13.40;99.90
24158;DHT22;12316;50.904;4.200;2023-11-19T15:09:12;13.50;99.90
24158;DHT22;12316;50.904;4.200;2023-11-19T15:11:45;13.50;99.90
24158;DHT22;12316;50.904;4.200;2023-11-19T15:14:12;13.50;99.90
24158;DHT22;12316;50.904;4.200;2023-11-19T15:16:42;13.30;99.90
24158;DHT22;12316;50.904;4.200;2023-11-19T15:19:08;13.40;99.90
24158;DHT22;12316;50.904;4.200;2023-11-19T15:21:34;13.30;99.90
24158;DHT22;12316;50.904;4.200;2023-11-19T15:24:01;13.30;99.90
24158;DHT22;12316;50.904;4.200;2023-11-19T15:26:30;13.30;99.90
24158;DHT22;12316;50.904;4.200;2023-11-19T15:28:56;13.30;99.90
24158;DHT22;12316;50.904;4.200;2023-11-19T15:31:24;13.40;99.90
24158;DHT22;12316;50.904;4.200;2023-11-19T15:33:49;13.40;99.90
24158;DHT22;12316;50.904;4.200;2023-11-19T15:36:16;13.30;99.90
24158;DHT22;12316;50.904;4.200;2023-11-19T15:38:43;13.30;99.90
24158;DHT22;12316;50.904;4.200;2023-11-19T15:41:08;13.30;99.90
24158;DHT22;12316;50.904;4.200;2023-11-19T15:43:34;13.30;99.90
24158;DHT22;12316;50.904;4.200;2023-11-19T15:46:00;13.30;99.90
24158;DHT22;12316;50.904;4.200;2023-11-19T15:48:25;13.30;99.90